Time;durP1;ratioP1;P1;durP2;ratioP2;P2;SDS_P1;SDS_P2;PMS_P1;PMS_P2;Temp;Humidity;BMP_temperature;BMP_pressure;BME280_temperature;BME280_humidity;BME280_pressure;Samples;Min_cycle;Max_cycle;Signal;HPM_P1;HPM_P2
2021/10/16 00:01:15;;;;;;;3.00;2.17;;;;;;;;;;4914994;29;20032;-36
2021/10/16 00:03:41;;;;;;;3.22;2.10;;;;;;;;;;4915211;29;20020;-36
2021/10/16 00:06:06;;;;;;;4.82;1.95;;;;;;;;;;4915054;29;20463;-36
2021/10/16 00:08:32;;;;;;;4.53;2.22;;;;;;;;;;4915107;29;20016;-36
2021/10/16 00:10:57;;;;;;;6.32;2.38;;;;;;;;;;4914908;29;20391;-36
2021/10/16 00:13:23;;;;;;;5.72;2.42;;;;;;;;;;4915018;29;20060;-37
2021/10/16 00:15:49;;;;;;;5.72;2.40;;;;;;;;;;4915218;29;20028;-36
2021/10/16 00:18:14;;;;;;;2.38;2.08;;;;;;;;;;4917582;29;20039;-37
2021/10/16 00:20:40;;;;;;;3.40;1.98;;;;;;;;;;4919045;29;20032;-36
2021/10/16 00:23:06;;;;;;;2.42;1.60;;;;;;;;;;4917491;29;20024;-36
2021/10/16 00:25:31;;;;;;;3.83;2.08;;;;;;;;;;4918797;29;20108;-36
2021/10/16 00:27:57;;;;;;;2.25;1.95;;;;;;;;;;4918628;29;20047;-36
2021/10/16 00:30:22;;;;;;;4.00;2.10;;;;;;;;;;4917444;29;20115;-37
2021/10/16 00:32:47;;;;;;;5.63;1.90;;;;;;;;;;4932964;29;20499;-36
2021/10/16 00:35:13;;;;;;;2.80;2.10;;;;;;;;;;4933243;29;20032;-36
2021/10/16 00:37:38;;;;;;;4.75;2.40;;;;;;;;;;4918750;29;20040;-36
2021/10/16 00:40:05;;;;;;;2.10;1.60;;;;;;;;;;4917233;29;20032;-36
2021/10/16 00:42:30;;;;;;;2.85;1.88;;;;;;;;;;4917210;29;20111;-36
2021/10/16 00:45:00;;;;;;;2.80;1.90;;;;;;;;;;4917075;29;20160;-36
2021/10/16 00:47:26;;;;;;;3.33;2.17;;;;;;;;;;4917197;29;20024;-36
2021/10/16 00:49:51;;;;;;;3.15;1.83;;;;;;;;;;4918288;29;20031;-36
2021/10/16 00:52:16;;;;;;;3.92;2.25;;;;;;;;;;4918473;29;20604;-36
2021/10/16 00:54:42;;;;;;;4.25;2.30;;;;;;;;;;4917026;29;20040;-36
2021/10/16 00:57:10;;;;;;;5.50;1.80;;;;;;;;;;4918118;29;20028;-37
2021/10/16 00:59:36;;;;;;;3.67;2.47;;;;;;;;;;4918184;29;20028;-36
2021/10/16 01:02:01;;;;;;;2.92;2.08;;;;;;;;;;4916841;29;20032;-36
2021/10/16 01:04:27;;;;;;;3.45;2.53;;;;;;;;;;4932691;29;20140;-36
2021/10/16 01:07:00;;;;;;;;;;;;;;;;;;4917101;29;20031;-36
2021/10/16 01:09:25;;;;;;;3.85;1.80;;;;;;;;;;4916686;29;19963;-36
2021/10/16 01:11:54;;;;;;;1.85;1.45;;;;;;;;;;4917863;29;20035;-36
2021/10/16 01:14:20;;;;;;;3.20;1.83;;;;;;;;;;4917883;29;20475;-36
2021/10/16 01:16:49;;;;;;;5.45;2.25;;;;;;;;;;4916653;29;20031;-36
2021/10/16 01:19:15;;;;;;;7.20;2.13;;;;;;;;;;4917742;29;20046;-37
2021/10/16 01:21:45;;;;;;;5.03;1.92;;;;;;;;;;4917810;29;20024;-36
2021/10/16 01:24:12;;;;;;;4.90;1.70;;;;;;;;;;4932206;29;20442;-36
2021/10/16 01:26:39;;;;;;;4.32;1.77;;;;;;;;;;4917625;29;20480;-36
2021/10/16 01:29:07;;;;;;;3.83;1.95;;;;;;;;;;4916366;29;20085;-36
2021/10/16 01:31:33;;;;;;;1.55;1.13;;;;;;;;;;4916071;29;20406;-37
2021/10/16 01:34:00;;;;;;;3.28;1.70;;;;;;;;;;4900486;29;20027;-37
2021/10/16 01:36:25;;;;;;;2.25;1.92;;;;;;;;;;4916375;29;20103;-36
2021/10/16 01:38:51;;;;;;;2.88;1.63;;;;;;;;;;4932044;29;20679;-36
2021/10/16 01:41:16;;;;;;;1.83;1.52;;;;;;;;;;4917652;29;20024;-37
2021/10/16 01:43:42;;;;;;;3.33;1.52;;;;;;;;;;4916204;29;20044;-36
2021/10/16 01:46:08;;;;;;;2.53;1.42;;;;;;;;;;4916111;29;20039;-36
2021/10/16 01:48:34;;;;;;;3.38;1.90;;;;;;;;;;4915990;29;20032;-36
2021/10/16 01:51:00;;;;;;;5.22;1.65;;;;;;;;;;4915815;29;20036;-36
2021/10/16 01:53:29;;;;;;;2.80;1.70;;;;;;;;;;4931899;29;20032;-36
2021/10/16 01:55:59;;;;;;;2.85;1.55;;;;;;;;;;4915758;29;20024;-36
2021/10/16 01:58:27;;;;;;;2.65;1.75;;;;;;;;;;4915966;29;20040;-37
2021/10/16 02:01:11;;;;;;;3.65;2.10;;;;;;;;;;4917327;29;20391;-36
2021/10/16 02:03:38;;;;;;;3.10;1.75;;;;;;;;;;4931711;29;20058;-36
2021/10/16 02:06:15;;;;;;;2.92;1.75;;;;;;;;;;4915766;29;20024;-36
2021/10/16 02:08:48;;;;;;;2.90;2.13;;;;;;;;;;4917054;29;20030;-36
2021/10/16 02:11:13;;;;;;;3.85;2.28;;;;;;;;;;4916717;29;20381;-36
2021/10/16 02:13:48;;;;;;;1.73;1.50;;;;;;;;;;4915646;29;20036;-36
2021/10/16 02:16:14;;;;;;;4.05;2.28;;;;;;;;;;4915536;29;20505;-36
2021/10/16 02:19:11;;;;;;;2.42;1.67;;;;;;;;;;4894837;29;20060;-36
2021/10/16 02:21:37;;;;;;;2.08;0.98;;;;;;;;;;4915387;29;20479;-38
2021/10/16 02:24:04;;;;;;;2.25;1.60;;;;;;;;;;4931154;29;20028;-37
2021/10/16 02:26:37;;;;;;;;;;;;;;;;;;4931688;29;20415;-36
2021/10/16 02:29:03;;;;;;;2.88;1.65;;;;;;;;;;4915300;29;20021;-36
2021/10/16 02:31:34;;;;;;;2.47;1.60;;;;;;;;;;4914964;29;20060;-36
2021/10/16 02:34:02;;;;;;;7.35;2.70;;;;;;;;;;4915330;29;20028;-37
2021/10/16 02:36:35;;;;;;;;;;;;;;;;;;4931386;29;20032;-36
2021/10/16 02:39:01;;;;;;;1.73;1.42;;;;;;;;;;4914988;29;19915;-36
2021/10/16 02:41:33;;;;;;;2.75;1.65;;;;;;;;;;4915901;29;20571;-36
2021/10/16 02:43:59;;;;;;;3.38;2.20;;;;;;;;;;4914958;29;20503;-37
2021/10/16 02:46:25;;;;;;;3.08;1.88;;;;;;;;;;4914995;29;20028;-36
2021/10/16 02:48:51;;;;;;;4.63;2.40;;;;;;;;;;4914911;29;20039;-37
2021/10/16 02:51:16;;;;;;;2.13;1.60;;;;;;;;;;4914803;29;20126;-36
2021/10/16 02:53:43;;;;;;;2.72;1.73;;;;;;;;;;4914915;29;20039;-37
2021/10/16 02:56:12;;;;;;;2.35;1.90;;;;;;;;;;4930599;29;20059;-36
2021/10/16 02:58:38;;;;;;;3.38;2.42;;;;;;;;;;4914827;29;20056;-37
2021/10/16 03:01:03;;;;;;;3.90;1.85;;;;;;;;;;4915891;29;20481;-36
2021/10/16 03:03:29;;;;;;;3.80;2.38;;;;;;;;;;4930564;29;20558;-37
2021/10/16 03:05:55;;;;;;;4.20;2.95;;;;;;;;;;4914589;29;20436;-36
2021/10/16 03:08:20;;;;;;;3.78;2.22;;;;;;;;;;4930342;29;20456;-36
2021/10/16 03:10:46;;;;;;;2.90;1.95;;;;;;;;;;4916031;29;20067;-36
2021/10/16 03:13:17;;;;;;;4.68;2.47;;;;;;;;;;4914455;29;20052;-36
2021/10/16 03:15:44;;;;;;;3.17;1.90;;;;;;;;;;4914577;29;20123;-36
2021/10/16 03:18:09;;;;;;;2.88;2.25;;;;;;;;;;4914461;29;20111;-36
2021/10/16 03:20:35;;;;;;;3.00;1.65;;;;;;;;;;4914360;29;20414;-36
2021/10/16 03:23:07;;;;;;;4.28;1.88;;;;;;;;;;4914365;29;20498;-37
2021/10/16 03:25:34;;;;;;;2.83;1.77;;;;;;;;;;4914152;29;20515;-36
2021/10/16 03:28:00;;;;;;;4.25;2.20;;;;;;;;;;4915742;29;20034;-37
2021/10/16 03:30:26;;;;;;;3.65;1.98;;;;;;;;;;4914293;29;20055;-37
2021/10/16 03:32:51;;;;;;;2.75;2.15;;;;;;;;;;4914106;29;20074;-36
2021/10/16 03:35:17;;;;;;;2.35;2.05;;;;;;;;;;4914282;29;20064;-36
2021/10/16 03:37:42;;;;;;;4.70;2.40;;;;;;;;;;4914151;29;20060;-36
2021/10/16 03:40:08;;;;;;;2.10;1.83;;;;;;;;;;4914130;29;20040;-36
2021/10/16 03:42:34;;;;;;;4.47;2.20;;;;;;;;;;4914083;29;20028;-36
2021/10/16 03:45:10;;;;;;;4.43;2.53;;;;;;;;;;4914125;29;20040;-36
2021/10/16 03:47:35;;;;;;;5.25;2.53;;;;;;;;;;4914177;29;20149;-36
2021/10/16 03:50:01;;;;;;;2.17;1.83;;;;;;;;;;4913886;29;20107;-36
2021/10/16 03:52:26;;;;;;;4.22;2.45;;;;;;;;;;4913257;29;20521;-36
2021/10/16 03:54:52;;;;;;;3.55;2.05;;;;;;;;;;4929745;29;20020;-36
2021/10/16 03:57:18;;;;;;;3.60;2.42;;;;;;;;;;4913899;29;20036;-36
2021/10/16 03:59:45;;;;;;;8.20;2.65;;;;;;;;;;4915216;29;20028;-36
2021/10/16 04:02:10;;;;;;;2.47;2.10;;;;;;;;;;4913889;29;20126;-36
2021/10/16 04:04:36;;;;;;;3.70;2.10;;;;;;;;;;4929714;29;20039;-36
2021/10/16 04:07:02;;;;;;;4.47;2.38;;;;;;;;;;4913831;29;20036;-36
2021/10/16 04:09:27;;;;;;;4.50;2.20;;;;;;;;;;4913760;29;20032;-36
2021/10/16 04:11:53;;;;;;;2.45;2.00;;;;;;;;;;4913745;29;20127;-37
2021/10/16 04:14:20;;;;;;;3.10;1.85;;;;;;;;;;4929651;29;20160;-36
2021/10/16 04:16:47;;;;;;;5.47;2.65;;;;;;;;;;4915004;29;20122;-36
2021/10/16 04:19:12;;;;;;;5.32;2.47;;;;;;;;;;4929382;29;20020;-37
2021/10/16 04:21:38;;;;;;;3.00;2.30;;;;;;;;;;4929605;29;20123;-36
2021/10/16 04:24:04;;;;;;;4.65;2.50;;;;;;;;;;4913642;29;20080;-36
2021/10/16 04:26:30;;;;;;;3.30;2.35;;;;;;;;;;4913675;29;20517;-37
2021/10/16 04:28:56;;;;;;;3.40;2.20;;;;;;;;;;4913708;29;20024;-36
2021/10/16 04:31:33;;;;;;;3.33;1.95;;;;;;;;;;4913306;29;20059;-36
2021/10/16 04:33:59;;;;;;;2.22;1.77;;;;;;;;;;4913613;29;20028;-36
2021/10/16 04:36:25;;;;;;;4.47;2.50;;;;;;;;;;4914962;29;20036;-37
2021/10/16 04:38:50;;;;;;;2.25;1.85;;;;;;;;;;4914813;29;20036;-36
2021/10/16 04:41:16;;;;;;;4.85;1.70;;;;;;;;;;4914832;29;20028;-36
2021/10/16 04:43:42;;;;;;;4.35;2.15;;;;;;;;;;4913502;29;20097;-36
2021/10/16 04:46:09;;;;;;;5.53;2.55;;;;;;;;;;4914794;29;20027;-38
2021/10/16 04:48:36;;;;;;;4.10;2.08;;;;;;;;;;4914737;29;20079;-36
2021/10/16 04:51:01;;;;;;;2.42;1.83;;;;;;;;;;4913262;29;20448;-36
2021/10/16 04:53:27;;;;;;;4.07;2.10;;;;;;;;;;4913464;29;20140;-36
2021/10/16 04:55:52;;;;;;;3.65;1.90;;;;;;;;;;4913317;29;20021;-36
2021/10/16 04:58:18;;;;;;;4.40;2.10;;;;;;;;;;4929168;29;20076;-37
2021/10/16 05:00:45;;;;;;;3.72;1.90;;;;;;;;;;4913433;29;20024;-36
2021/10/16 05:03:14;;;;;;;3.63;2.17;;;;;;;;;;4914146;29;20028;-36
2021/10/16 05:05:40;;;;;;;2.80;1.75;;;;;;;;;;4901171;29;20054;-36
2021/10/16 05:08:10;;;;;;;3.28;2.28;;;;;;;;;;4916587;29;20032;-37
2021/10/16 05:10:36;;;;;;;4.55;2.92;;;;;;;;;;4918231;29;20038;-36
2021/10/16 05:13:05;;;;;;;3.15;2.05;;;;;;;;;;4916583;29;20048;-36
2021/10/16 05:15:31;;;;;;;3.03;1.95;;;;;;;;;;4916629;29;20072;-36
2021/10/16 05:17:57;;;;;;;2.55;1.85;;;;;;;;;;4916621;29;20499;-36
2021/10/16 05:20:31;;;;;;;3.40;2.00;;;;;;;;;;4916533;29;20031;-36
2021/10/16 05:22:57;;;;;;;2.80;1.77;;;;;;;;;;4916486;29;20036;-36
2021/10/16 05:25:23;;;;;;;3.13;2.63;;;;;;;;;;4916508;29;20032;-36
2021/10/16 05:27:49;;;;;;;3.55;2.30;;;;;;;;;;4916521;29;20039;-36
2021/10/16 05:30:16;;;;;;;3.00;2.13;;;;;;;;;;4916321;29;20028;-36
2021/10/16 05:32:41;;;;;;;2.78;2.22;;;;;;;;;;4932091;29;20052;-36
2021/10/16 05:35:12;;;;;;;3.05;2.00;;;;;;;;;;4917801;29;20488;-36
2021/10/16 05:37:37;;;;;;;1.88;1.60;;;;;;;;;;4932122;29;20059;-36
2021/10/16 05:40:04;;;;;;;3.10;1.95;;;;;;;;;;4916238;29;20020;-36
2021/10/16 05:42:29;;;;;;;4.03;2.05;;;;;;;;;;4916422;29;20356;-37
2021/10/16 05:44:55;;;;;;;2.88;1.77;;;;;;;;;;4917410;29;20022;-36
2021/10/16 05:47:20;;;;;;;3.15;2.05;;;;;;;;;;4916221;29;20551;-37
2021/10/16 05:49:46;;;;;;;3.78;2.53;;;;;;;;;;4917518;29;20035;-36
2021/10/16 05:52:12;;;;;;;4.22;1.67;;;;;;;;;;4931680;29;20036;-36
2021/10/16 05:54:37;;;;;;;3.55;1.90;;;;;;;;;;4915985;29;20052;-36
2021/10/16 05:57:03;;;;;;;5.63;2.08;;;;;;;;;;4931620;29;20036;-36
2021/10/16 05:59:30;;;;;;;2.65;1.95;;;;;;;;;;4915919;29;20028;-36
2021/10/16 06:01:55;;;;;;;6.95;2.25;;;;;;;;;;4931650;29;20034;-37
2021/10/16 06:04:22;;;;;;;3.38;2.17;;;;;;;;;;4915831;29;20020;-36
2021/10/16 06:06:50;;;;;;;2.75;2.05;;;;;;;;;;4915819;29;20024;-36
2021/10/16 06:09:16;;;;;;;4.88;2.53;;;;;;;;;;4916832;29;20020;-36
2021/10/16 06:11:41;;;;;;;4.20;1.73;;;;;;;;;;4915728;29;20044;-36
2021/10/16 06:14:09;;;;;;;2.88;1.80;;;;;;;;;;4915385;29;20104;-36
2021/10/16 06:16:34;;;;;;;4.50;2.50;;;;;;;;;;4930851;29;20487;-36
2021/10/16 06:19:04;;;;;;;4.32;2.10;;;;;;;;;;4916768;29;20020;-36
2021/10/16 06:21:31;;;;;;;5.50;2.63;;;;;;;;;;4900412;29;20088;-36
2021/10/16 06:23:57;;;;;;;2.97;1.70;;;;;;;;;;4931227;29;20457;-36
2021/10/16 06:26:45;;;;;;;3.13;2.03;;;;;;;;;;4915378;29;20032;-36
2021/10/16 06:29:11;;;;;;;2.03;1.60;;;;;;;;;;4931079;29;20121;-36
2021/10/16 06:31:36;;;;;;;1.98;1.70;;;;;;;;;;4916374;29;20056;-36
2021/10/16 06:34:03;;;;;;;3.55;2.40;;;;;;;;;;4930978;29;20124;-37
2021/10/16 06:36:29;;;;;;;3.28;1.70;;;;;;;;;;4915246;29;20063;-36
2021/10/16 06:38:55;;;;;;;3.15;2.13;;;;;;;;;;4915110;29;20463;-36
2021/10/16 06:41:22;;;;;;;4.53;2.35;;;;;;;;;;4915151;29;20027;-36
2021/10/16 06:44:08;;;;;;;6.40;2.15;;;;;;;;;;4896022;29;20036;-39
2021/10/16 06:46:52;;;;;;;3.78;1.67;;;;;;;;;;4916262;29;20066;-36
2021/10/16 06:49:24;;;;;;;4.05;2.08;;;;;;;;;;4914990;29;20484;-37
2021/10/16 06:51:51;;;;;;;3.20;2.03;;;;;;;;;;4914837;29;20044;-36
2021/10/16 06:54:17;;;;;;;3.30;1.65;;;;;;;;;;4914845;29;20080;-36
2021/10/16 06:56:43;;;;;;;3.35;1.98;;;;;;;;;;4930737;29;20032;-36
2021/10/16 06:59:09;;;;;;;2.45;1.70;;;;;;;;;;4914648;29;20111;-36
2021/10/16 07:01:35;;;;;;;2.95;1.77;;;;;;;;;;4914814;29;20467;-36
2021/10/16 07:04:15;;;;;;;4.97;2.38;;;;;;;;;;4914668;29;20093;-36
2021/10/16 07:06:41;;;;;;;3.63;1.90;;;;;;;;;;4914805;29;20028;-36
2021/10/16 07:09:12;;;;;;;4.78;2.50;;;;;;;;;;4914457;29;20029;-36
2021/10/16 07:11:38;;;;;;;2.10;1.52;;;;;;;;;;4915884;29;20080;-36
2021/10/16 07:14:03;;;;;;;3.08;1.73;;;;;;;;;;4898842;29;20048;-36
2021/10/16 07:16:29;;;;;;;2.95;2.13;;;;;;;;;;4914693;29;20032;-36
2021/10/16 07:18:54;;;;;;;2.17;1.70;;;;;;;;;;4915925;29;20024;-36
2021/10/16 07:21:20;;;;;;;3.97;2.17;;;;;;;;;;4915974;29;20032;-36
2021/10/16 07:23:45;;;;;;;2.55;1.67;;;;;;;;;;4915652;29;20043;-36
2021/10/16 07:26:12;;;;;;;4.55;2.03;;;;;;;;;;4915512;29;20032;-36
2021/10/16 07:28:38;;;;;;;4.15;1.95;;;;;;;;;;4915552;29;20100;-36
2021/10/16 07:31:03;;;;;;;4.03;1.80;;;;;;;;;;4929859;29;20073;-38
2021/10/16 07:33:29;;;;;;;3.60;2.22;;;;;;;;;;4915535;29;20518;-36
2021/10/16 07:35:54;;;;;;;2.28;1.65;;;;;;;;;;4915497;29;20034;-37
2021/10/16 07:38:20;;;;;;;9.57;2.17;;;;;;;;;;4915502;29;20023;-37
2021/10/16 07:40:45;;;;;;;4.20;2.53;;;;;;;;;;4915631;29;20111;-36
2021/10/16 07:43:11;;;;;;;4.45;2.17;;;;;;;;;;4915322;29;20025;-36
2021/10/16 07:45:37;;;;;;;3.88;2.15;;;;;;;;;;4915610;29;20035;-36
2021/10/16 07:48:03;;;;;;;5.40;1.88;;;;;;;;;;4915282;29;20024;-36
2021/10/16 07:50:28;;;;;;;6.00;2.10;;;;;;;;;;4915317;29;20040;-36
2021/10/16 07:52:53;;;;;;;2.83;1.52;;;;;;;;;;4915465;29;20380;-36
2021/10/16 07:55:20;;;;;;;3.17;2.22;;;;;;;;;;4915155;29;20035;-37
2021/10/16 07:57:45;;;;;;;2.92;1.83;;;;;;;;;;4915133;29;20039;-36
2021/10/16 08:00:11;;;;;;;4.25;2.28;;;;;;;;;;4914993;29;20032;-36
2021/10/16 08:02:39;;;;;;;2.90;2.00;;;;;;;;;;4915226;29;20024;-36
2021/10/16 08:05:05;;;;;;;2.30;1.92;;;;;;;;;;4915078;29;20036;-36
2021/10/16 08:07:31;;;;;;;2.97;1.85;;;;;;;;;;4915187;29;20075;-36
2021/10/16 08:09:57;;;;;;;3.05;2.00;;;;;;;;;;4913745;29;20039;-36
2021/10/16 08:12:23;;;;;;;3.20;1.98;;;;;;;;;;4914951;29;20032;-36
2021/10/16 08:14:48;;;;;;;4.50;1.90;;;;;;;;;;4915402;29;20036;-36
2021/10/16 08:17:14;;;;;;;5.15;2.22;;;;;;;;;;4914987;29;20394;-36
2021/10/16 08:19:39;;;;;;;2.42;1.58;;;;;;;;;;4914831;29;20043;-36
2021/10/16 08:22:05;;;;;;;2.58;1.70;;;;;;;;;;4914976;29;20100;-37
2021/10/16 08:24:30;;;;;;;2.22;1.40;;;;;;;;;;4914987;29;20092;-36
2021/10/16 08:26:56;;;;;;;5.88;1.92;;;;;;;;;;4914900;29;20032;-36
2021/10/16 08:29:21;;;;;;;4.63;1.92;;;;;;;;;;4914943;29;20044;-36
2021/10/16 08:31:47;;;;;;;3.40;1.83;;;;;;;;;;4914646;29;20048;-37
2021/10/16 08:34:12;;;;;;;3.15;2.00;;;;;;;;;;4914813;29;20468;-36
2021/10/16 08:36:38;;;;;;;2.65;1.58;;;;;;;;;;4914833;29;20028;-36
2021/10/16 08:39:04;;;;;;;4.45;1.83;;;;;;;;;;4916962;29;20099;-37
2021/10/16 08:41:30;;;;;;;2.78;1.92;;;;;;;;;;4918633;29;20052;-36
2021/10/16 08:43:55;;;;;;;2.97;2.05;;;;;;;;;;4918708;29;20432;-37
2021/10/16 08:46:21;;;;;;;2.58;1.73;;;;;;;;;;4918417;29;20099;-36
2021/10/16 08:48:47;;;;;;;3.17;1.88;;;;;;;;;;4918382;29;20036;-36
2021/10/16 08:51:12;;;;;;;3.38;1.92;;;;;;;;;;4918500;29;20080;-36
2021/10/16 08:53:38;;;;;;;6.57;2.13;;;;;;;;;;4918684;29;20488;-36
2021/10/16 08:56:06;;;;;;;3.42;1.77;;;;;;;;;;4918229;29;20051;-36
2021/10/16 08:58:33;;;;;;;2.55;1.50;;;;;;;;;;4918264;29;20048;-36
2021/10/16 09:01:00;;;;;;;2.72;2.00;;;;;;;;;;4918080;29;20027;-36
2021/10/16 09:03:30;;;;;;;4.90;1.90;;;;;;;;;;4918175;29;20115;-36
2021/10/16 09:06:13;;;;;;;4.90;1.70;;;;;;;;;;4917276;29;20115;-36
2021/10/16 09:08:38;;;;;;;4.70;1.52;;;;;;;;;;4918088;29;20032;-37
2021/10/16 09:11:10;;;;;;;2.30;1.40;;;;;;;;;;4917926;29;20028;-37
2021/10/16 09:13:44;;;;;;;6.18;1.42;;;;;;;;;;4918239;29;20038;-36
2021/10/16 09:16:19;;;;;;;5.43;1.55;;;;;;;;;;4917916;29;20051;-36
2021/10/16 09:18:52;;;;;;;2.53;1.52;;;;;;;;;;4916665;29;20043;-36
2021/10/16 09:21:17;;;;;;;2.90;1.70;;;;;;;;;;4917846;29;20472;-36
2021/10/16 09:23:42;;;;;;;4.30;1.58;;;;;;;;;;4917811;29;20024;-36
2021/10/16 09:26:08;;;;;;;3.92;1.05;;;;;;;;;;4917752;29;20050;-36
2021/10/16 09:28:36;;;;;;;2.30;1.35;;;;;;;;;;4917660;29;20016;-37
2021/10/16 09:31:07;;;;;;;1.40;1.30;;;;;;;;;;4917498;29;20545;-36
2021/10/16 09:33:46;;;;;;;2.30;1.52;;;;;;;;;;4916530;29;20108;-36
2021/10/16 09:36:22;;;;;;;2.40;1.15;;;;;;;;;;4917568;29;20024;-36
2021/10/16 09:38:48;;;;;;;4.45;1.67;;;;;;;;;;4917379;29;20119;-36
2021/10/16 09:41:26;;;;;;;2.17;1.25;;;;;;;;;;4917504;29;20096;-36
2021/10/16 09:43:52;;;;;;;1.38;1.20;;;;;;;;;;4917659;29;20042;-36
2021/10/16 09:46:18;;;;;;;2.33;1.40;;;;;;;;;;4917374;29;20016;-36
2021/10/16 09:48:47;;;;;;;2.88;1.35;;;;;;;;;;4917343;29;20032;-36
2021/10/16 09:51:14;;;;;;;1.42;1.20;;;;;;;;;;4915976;29;20479;-36
2021/10/16 09:53:42;;;;;;;2.40;1.40;;;;;;;;;;4917307;29;20040;-36
2021/10/16 09:56:09;;;;;;;0.85;0.85;;;;;;;;;;4917193;29;20020;-36
2021/10/16 09:58:37;;;;;;;2.08;1.05;;;;;;;;;;4916295;29;20107;-36
2021/10/16 10:01:03;;;;;;;2.13;1.40;;;;;;;;;;4917275;29;20032;-36
2021/10/16 10:03:31;;;;;;;2.75;1.40;;;;;;;;;;4917208;29;20040;-36
2021/10/16 10:05:56;;;;;;;2.15;1.52;;;;;;;;;;4917095;29;20151;-36
2021/10/16 10:08:22;;;;;;;1.50;0.82;;;;;;;;;;4916852;29;20123;-36
2021/10/16 10:10:48;;;;;;;1.77;1.10;;;;;;;;;;4917038;29;20825;-36
2021/10/16 10:13:14;;;;;;;2.08;1.30;;;;;;;;;;4931371;29;20044;-36
2021/10/16 10:15:39;;;;;;;1.63;1.00;;;;;;;;;;4916721;29;20518;-36
2021/10/16 10:20:51;;;;;;;2.33;1.52;;;;;;;;;;4916879;29;20040;-36
2021/10/16 10:23:20;;;;;;;2.42;0.70;;;;;;;;;;4917018;29;20387;-36
2021/10/16 10:25:46;;;;;;;2.13;0.98;;;;;;;;;;4916725;29;20032;-36
2021/10/16 10:28:11;;;;;;;1.08;0.90;;;;;;;;;;4916447;29;20028;-36
2021/10/16 10:30:41;;;;;;;3.03;2.72;;;;;;;;;;4916545;29;20036;-40
2021/10/16 10:33:16;;;;;;;1.65;1.00;;;;;;;;;;4916426;29;20048;-36
2021/10/16 10:35:47;;;;;;;1.98;1.23;;;;;;;;;;4916469;29;20032;-36
2021/10/16 10:38:32;;;;;;;2.33;1.52;;;;;;;;;;4916437;29;20040;-36
2021/10/16 10:40:58;;;;;;;2.35;1.10;;;;;;;;;;4916390;29;20036;-36
2021/10/16 10:43:39;;;;;;;1.20;1.10;;;;;;;;;;4915146;29;20028;-36
2021/10/16 10:46:08;;;;;;;3.08;1.20;;;;;;;;;;4916285;29;20032;-36
2021/10/16 10:48:44;;;;;;;1.48;1.08;;;;;;;;;;4916299;29;20055;-36
2021/10/16 10:51:10;;;;;;;2.35;1.17;;;;;;;;;;4916164;29;20043;-36
2021/10/16 10:53:37;;;;;;;1.92;1.17;;;;;;;;;;4916270;29;20032;-36
2021/10/16 10:56:03;;;;;;;2.92;0.85;;;;;;;;;;4916047;29;20070;-36
2021/10/16 10:58:46;;;;;;;1.35;1.15;;;;;;;;;;4916472;29;20424;-37
2021/10/16 11:01:32;;;;;;;1.75;0.90;;;;;;;;;;4915707;29;20032;-36
2021/10/16 11:04:01;;;;;;;2.10;0.85;;;;;;;;;;4915911;29;20028;-36
2021/10/16 11:06:27;;;;;;;1.92;0.70;;;;;;;;;;4916049;29;20047;-36
2021/10/16 11:08:52;;;;;;;0.52;0.52;;;;;;;;;;4916208;29;20024;-36
2021/10/16 11:11:18;;;;;;;1.42;0.90;;;;;;;;;;4915985;29;20885;-37
2021/10/16 11:13:43;;;;;;;2.10;1.25;;;;;;;;;;4914776;29;20036;-36
2021/10/16 11:16:09;;;;;;;1.13;0.70;;;;;;;;;;4915825;29;20024;-36
2021/10/16 11:18:35;;;;;;;1.40;0.93;;;;;;;;;;4915636;29;20071;-37
2021/10/16 11:21:03;;;;;;;1.08;0.60;;;;;;;;;;4915732;29;20039;-37
2021/10/16 11:23:28;;;;;;;1.25;0.77;;;;;;;;;;4915990;29;20050;-36
2021/10/16 11:25:55;;;;;;;2.00;1.45;;;;;;;;;;4915645;29;20071;-37
2021/10/16 11:28:21;;;;;;;2.25;1.02;;;;;;;;;;4915645;29;20040;-36
2021/10/16 11:30:47;;;;;;;1.05;0.90;;;;;;;;;;4915499;29;20035;-37
2021/10/16 11:33:17;;;;;;;0.88;0.80;;;;;;;;;;4915267;29;20056;-37
2021/10/16 11:35:43;;;;;;;1.13;0.70;;;;;;;;;;4915467;29;20036;-36
2021/10/16 11:38:10;;;;;;;2.55;1.02;;;;;;;;;;4915628;29;20092;-36
2021/10/16 11:40:36;;;;;;;2.95;1.00;;;;;;;;;;4914255;29;20441;-37
2021/10/16 11:43:03;;;;;;;1.80;1.23;;;;;;;;;;4915257;29;20032;-36
2021/10/16 11:45:30;;;;;;;1.38;0.95;;;;;;;;;;4915391;29;20375;-36
2021/10/16 11:47:57;;;;;;;3.13;1.13;;;;;;;;;;4915377;29;20039;-36
2021/10/16 11:50:27;;;;;;;1.08;0.82;;;;;;;;;;4915547;29;20383;-36
2021/10/16 11:53:08;;;;;;;1.80;1.02;;;;;;;;;;4929788;29;20407;-36
2021/10/16 11:55:34;;;;;;;0.93;0.80;;;;;;;;;;4914171;29;20089;-36
2021/10/16 11:58:07;;;;;;;4.32;0.90;;;;;;;;;;4915088;29;20483;-36
2021/10/16 12:00:36;;;;;;;2.58;1.00;;;;;;;;;;4913975;29;20099;-36
2021/10/16 12:03:15;;;;;;;1.25;0.85;;;;;;;;;;4915151;29;20452;-36
2021/10/16 12:05:42;;;;;;;4.53;1.10;;;;;;;;;;4914031;29;20047;-37
2021/10/16 12:08:28;;;;;;;1.45;0.85;;;;;;;;;;4915221;29;20468;-36
2021/10/16 12:10:53;;;;;;;1.30;1.00;;;;;;;;;;4915491;29;20032;-37
2021/10/16 12:13:41;;;;;;;2.13;0.88;;;;;;;;;;4916000;29;20384;-36
2021/10/16 12:16:13;;;;;;;2.63;0.80;;;;;;;;;;4908895;29;20107;-36
2021/10/16 12:18:56;;;;;;;1.15;0.70;;;;;;;;;;4918938;29;20066;-36
2021/10/16 12:21:31;;;;;;;1.42;1.02;;;;;;;;;;4918751;29;20514;-36
2021/10/16 12:23:58;;;;;;;2.80;0.88;;;;;;;;;;4919042;29;20479;-36
2021/10/16 12:26:49;;;;;;;1.98;1.30;;;;;;;;;;4918827;29;20472;-36
2021/10/16 12:29:28;;;;;;;3.10;1.27;;;;;;;;;;4915757;29;20271;-36
2021/10/16 12:31:54;;;;;;;2.33;1.10;;;;;;;;;;4918502;29;20048;-36
2021/10/16 12:34:21;;;;;;;1.30;0.90;;;;;;;;;;4918971;29;20406;-36
2021/10/16 12:36:49;;;;;;;1.13;1.00;;;;;;;;;;4918824;29;20160;-36
2021/10/16 12:39:22;;;;;;;1.15;0.80;;;;;;;;;;4918793;29;20024;-36
2021/10/16 12:41:47;;;;;;;1.27;0.80;;;;;;;;;;4918824;29;20036;-36
2021/10/16 12:44:36;;;;;;;0.68;0.68;;;;;;;;;;4918713;29;20032;-36
2021/10/16 12:47:11;;;;;;;1.20;0.88;;;;;;;;;;4908373;29;20044;-37
2021/10/16 12:49:36;;;;;;;1.52;0.98;;;;;;;;;;4918395;29;20036;-37
2021/10/16 12:52:03;;;;;;;0.82;0.73;;;;;;;;;;4918215;29;20032;-36
2021/10/16 12:54:33;;;;;;;1.08;0.70;;;;;;;;;;4918678;29;20391;-36
2021/10/16 12:57:02;;;;;;;1.70;1.13;;;;;;;;;;4918242;29;20100;-36
2021/10/16 12:59:28;;;;;;;1.48;0.90;;;;;;;;;;4918173;29;20080;-36
2021/10/16 13:01:53;;;;;;;1.05;0.60;;;;;;;;;;4918308;29;20397;-36
2021/10/16 13:04:19;;;;;;;2.25;1.10;;;;;;;;;;4918100;29;20067;-36
2021/10/16 13:06:44;;;;;;;1.40;0.98;;;;;;;;;;4917877;29;20044;-36
2021/10/16 13:09:10;;;;;;;1.92;1.20;;;;;;;;;;4917973;29;20031;-36
2021/10/16 13:11:35;;;;;;;1.75;0.75;;;;;;;;;;4918236;29;20040;-37
2021/10/16 13:14:01;;;;;;;1.77;1.45;;;;;;;;;;4918030;29;20387;-36
2021/10/16 13:16:26;;;;;;;2.03;1.08;;;;;;;;;;4918024;29;20214;-36
2021/10/16 13:18:51;;;;;;;1.98;1.05;;;;;;;;;;4917875;29;20119;-36
2021/10/16 13:21:17;;;;;;;1.58;0.80;;;;;;;;;;4917892;29;20020;-36
2021/10/16 13:23:42;;;;;;;0.85;0.70;;;;;;;;;;4917857;29;20102;-36
2021/10/16 13:26:07;;;;;;;1.20;0.77;;;;;;;;;;4917815;29;20203;-36
2021/10/16 13:28:33;;;;;;;2.47;1.17;;;;;;;;;;4917663;29;20047;-36
2021/10/16 13:30:59;;;;;;;0.57;0.57;;;;;;;;;;4932654;29;20032;-37
2021/10/16 13:33:24;;;;;;;1.40;0.88;;;;;;;;;;4917348;29;20044;-36
2021/10/16 13:35:50;;;;;;;1.02;0.77;;;;;;;;;;4917624;29;20028;-36
2021/10/16 13:38:15;;;;;;;1.33;0.90;;;;;;;;;;4917659;29;20099;-36
2021/10/16 13:40:40;;;;;;;2.20;1.00;;;;;;;;;;4917442;29;20080;-37
2021/10/16 13:43:08;;;;;;;1.55;0.85;;;;;;;;;;4917747;29;20032;-37
2021/10/16 13:45:34;;;;;;;1.38;0.77;;;;;;;;;;4917498;29;20026;-37
2021/10/16 13:47:59;;;;;;;1.73;0.82;;;;;;;;;;4917329;29;20405;-37
2021/10/16 13:50:25;;;;;;;1.88;0.73;;;;;;;;;;4917398;29;20028;-36
2021/10/16 13:52:55;;;;;;;0.82;0.50;;;;;;;;;;4917327;29;20531;-36
2021/10/16 13:55:21;;;;;;;1.38;0.88;;;;;;;;;;4917357;29;20036;-36
2021/10/16 13:57:48;;;;;;;1.30;0.95;;;;;;;;;;4917220;29;20107;-36
2021/10/16 14:00:13;;;;;;;1.45;1.00;;;;;;;;;;4917099;29;20631;-36
2021/10/16 14:02:39;;;;;;;1.02;0.85;;;;;;;;;;4917264;29;20038;-36
2021/10/16 14:05:05;;;;;;;2.08;1.23;;;;;;;;;;4915919;29;20096;-36
2021/10/16 14:07:30;;;;;;;1.10;0.90;;;;;;;;;;4917017;29;20016;-37
2021/10/16 14:09:56;;;;;;;1.38;0.85;;;;;;;;;;4917004;29;20036;-36
2021/10/16 14:12:21;;;;;;;1.13;0.77;;;;;;;;;;4916854;29;20064;-36
2021/10/16 14:14:46;;;;;;;2.42;0.70;;;;;;;;;;4917257;29;20035;-37
2021/10/16 14:17:12;;;;;;;1.08;0.73;;;;;;;;;;4916762;29;20145;-39
2021/10/16 14:19:38;;;;;;;2.15;1.20;;;;;;;;;;4917052;29;20033;-36
2021/10/16 14:22:03;;;;;;;0.60;0.60;;;;;;;;;;4916776;29;20020;-37
2021/10/16 14:24:29;;;;;;;1.77;0.75;;;;;;;;;;4916979;29;20028;-37
2021/10/16 14:26:54;;;;;;;0.88;0.77;;;;;;;;;;4917074;29;20111;-37
2021/10/16 14:29:20;;;;;;;1.30;0.93;;;;;;;;;;4916783;29;20448;-37
2021/10/16 14:31:45;;;;;;;0.90;0.73;;;;;;;;;;4916492;29;20088;-36
2021/10/16 14:34:11;;;;;;;8.90;2.80;;;;;;;;;;4916487;29;20562;-36
2021/10/16 14:36:37;;;;;;;1.05;0.77;;;;;;;;;;4915879;29;20193;-37
2021/10/16 14:39:02;;;;;;;1.50;0.80;;;;;;;;;;4916768;29;20036;-36
2021/10/16 14:41:28;;;;;;;1.10;0.98;;;;;;;;;;4916498;29;20494;-36
2021/10/16 14:43:53;;;;;;;2.55;0.90;;;;;;;;;;4916567;29;20044;-36
2021/10/16 14:46:19;;;;;;;1.27;0.73;;;;;;;;;;4916418;29;20526;-38
2021/10/16 14:48:44;;;;;;;2.53;1.17;;;;;;;;;;4930976;29;20491;-36